Aérodrome :
LOGIN :

S'inscrire | Disclaimer

   EN    FR    IT 

 










Légende :    VFR   VFR Marginal   IFR   IFR Intensif   IFR Très Intensif
Visi : 
Plafond : 
>= 8 km
>= 3000ft
5 à 8 km
1000 à 3000 ft
1500m à 5 km
500 à 1000 ft
800 à 1500m
200 à 500 ft
< 800m
< 200 ft
Symboles :   Orages  Brouillard  Fortes neiges  Fortes précipitations  Vent > 20 kt
SIGMETs :   Divers  Orages  Givrage  Turbulence  Onde Orograph.  Cendres Volcan.






- Altitude de l'aérodrome : 17 ft
- Code IATA : MPL


LFMT - Montpellier Méditerranée

DERNIER METAR :
  • 131930Z AUTO 03003KT 340V080 9999 FEW013/// BKN110/// OVC140/// ///CB 24/23 Q1014 BECMG NSC

METARs EXPIRÉS :
  • 131900Z AUTO 09004KT 9999 SCT008/// BKN019/// BKN024/// ///TCU 25/23 Q1014 TEMPO BKN007
  • 131830Z AUTO 16008KT 9999 BKN006 BKN110 BKN130 25/23 Q1014 BECMG NSC
  • 131800Z AUTO 16005KT 130V200 9999 SCT006 BKN130 25/23 Q1013 TEMPO VRB15G25KT TS BKN040TCU
  • 131730Z AUTO 18009KT 9999 BKN007/// ///CB 25/23 Q1013 TEMPO VRB15G25KT TS BKN040TCU
  • 131700Z AUTO 17010KT 9999 SCT008/// ///CB 26/23 Q1013 TEMPO VRB15G25KT TS

TAF AMD TAF LFMT
Valide du 13 à 18h jusqu'au 14 à 15h UTC


131842Z 1318/1415 VRB05KT CAVOK
PROB30
TEMPO 1318/1321 BKN007
BECMG 1412/1414 18015KT
ATIS : +33 4 67 13 11 70



MET'MAP, la Météo Aéronautique d'un coup d'oeil ! - Copyright ORBIFLY Décembre 2007 - Disclaimer

ORBIFLY MET'MAP TEAM :

Programmation & Développement : Alexandra Zaïnal
Sur une idée originale de : Baudouin d'Aumeries
Assistance à la programmation : Marc-Olivier Méhu
Soutien technique & logistique : Manuel Goepfert

Contact : metmap@orbifly.com




SOURCES & CREDITS :

   NOAA